createdAt,value
2018-05-09T00:01:59.939Z,6.47
2018-05-09T00:04:26.830Z,4.23
2018-05-09T00:06:53.031Z,5.53
2018-05-09T00:09:19.904Z,4.10
2018-05-09T00:11:49.497Z,4.53
2018-05-09T00:14:16.371Z,4.97
2018-05-09T00:16:43.242Z,4.43
2018-05-09T00:19:10.306Z,6.63
2018-05-09T00:21:36.418Z,6.53
2018-05-09T00:24:03.316Z,4.00
2018-05-09T00:26:29.459Z,5.70
2018-05-09T00:28:55.589Z,4.40
2018-05-09T00:31:21.710Z,5.60
2018-05-09T00:33:47.826Z,5.83
2018-05-09T00:36:14.690Z,5.67
2018-05-09T00:38:41.571Z,3.73
2018-05-09T00:41:07.734Z,4.30
2018-05-09T00:43:33.854Z,4.40
2018-05-09T00:46:00.779Z,6.80
2018-05-09T00:48:26.894Z,5.43
2018-05-09T00:50:53.155Z,5.50
2018-05-09T00:53:19.284Z,5.20
2018-05-09T00:55:45.520Z,7.30
2018-05-09T00:58:11.983Z,5.00
2018-05-09T01:00:38.079Z,4.60
2018-05-09T01:03:04.934Z,4.40
2018-05-09T01:05:31.043Z,5.13
2018-05-09T01:07:57.151Z,4.70
2018-05-09T01:10:23.261Z,5.60
2018-05-09T01:12:49.362Z,5.67
2018-05-09T01:15:15.472Z,4.50
2018-05-09T01:17:41.592Z,7.63
2018-05-09T01:20:07.699Z,5.90
2018-05-09T01:22:34.539Z,6.60
2018-05-09T01:25:00.641Z,7.03
2018-05-09T01:27:26.794Z,5.10
2018-05-09T01:29:52.943Z,5.93
2018-05-09T01:32:19.038Z,6.43
2018-05-09T01:34:45.145Z,4.50
2018-05-09T01:37:11.262Z,7.23
2018-05-09T01:39:37.362Z,5.40
2018-05-09T01:42:03.451Z,4.87
2018-05-09T01:44:29.759Z,5.17
2018-05-09T01:46:55.851Z,5.17
2018-05-09T01:49:22.680Z,6.57
2018-05-09T01:51:48.784Z,6.07
2018-05-09T01:54:14.889Z,5.93
2018-05-09T01:56:41.724Z,5.87
2018-05-09T01:59:07.821Z,4.67
2018-05-09T02:01:33.921Z,5.30
2018-05-09T02:04:00.780Z,5.00
2018-05-09T02:06:28.690Z,5.77
2018-05-09T02:08:54.828Z,6.77
2018-05-09T02:11:20.890Z,5.50
2018-05-09T02:13:46.986Z,7.20
2018-05-09T02:16:13.071Z,6.00
2018-05-09T02:18:39.161Z,5.30
2018-05-09T02:21:06.023Z,11.03
2018-05-09T02:23:32.103Z,6.40
2018-05-09T02:25:58.339Z,4.90
2018-05-09T02:28:24.435Z,6.00
2018-05-09T02:30:50.571Z,5.33
2018-05-09T02:33:16.690Z,6.00
2018-05-09T02:35:42.811Z,5.63
2018-05-09T02:38:08.936Z,7.20
2018-05-09T02:40:35.040Z,6.00
2018-05-09T02:43:01.892Z,8.37
2018-05-09T02:45:28.744Z,5.83
2018-05-09T02:47:55.616Z,8.70
2018-05-09T02:50:22.462Z,6.77
2018-05-09T02:52:48.813Z,8.27
2018-05-09T02:55:15.666Z,6.83
2018-05-09T02:57:42.505Z,6.20
2018-05-09T03:00:08.639Z,6.43
2018-05-09T03:02:34.806Z,6.57
2018-05-09T03:05:01.663Z,6.70
2018-05-09T03:07:28.502Z,7.00
2018-05-09T03:09:54.582Z,7.10
2018-05-09T03:12:20.687Z,6.43
2018-05-09T03:14:47.551Z,7.30
2018-05-09T03:17:14.371Z,6.47
2018-05-09T03:19:40.470Z,7.00
2018-05-09T03:22:06.624Z,8.43
2018-05-09T03:24:32.727Z,6.80
2018-05-09T03:26:59.582Z,6.47
2018-05-09T03:29:30.226Z,8.87
2018-05-09T03:31:57.072Z,6.80
2018-05-09T03:34:23.183Z,6.40
2018-05-09T03:36:49.529Z,7.73
2018-05-09T03:39:15.643Z,6.47
2018-05-09T03:41:41.774Z,5.73
2018-05-09T03:44:08.254Z,6.30
2018-05-09T03:46:34.384Z,7.33
2018-05-09T03:49:00.527Z,6.87
2018-05-09T03:51:26.700Z,7.10
2018-05-09T03:53:53.571Z,9.23
2018-05-09T03:56:20.414Z,7.73
2018-05-09T03:58:46.528Z,7.20
2018-05-09T04:01:12.623Z,8.73
2018-05-09T04:03:52.168Z,7.20
2018-05-09T04:06:31.197Z,7.30
2018-05-09T04:09:11.099Z,7.80
2018-05-09T04:11:37.217Z,9.37
2018-05-09T04:14:04.078Z,10.00
2018-05-09T04:16:30.914Z,9.87
2018-05-09T04:18:57.015Z,9.57
2018-05-09T04:21:23.148Z,8.40
2018-05-09T04:23:49.260Z,8.70
2018-05-09T04:26:15.375Z,9.17
2018-05-09T04:28:41.468Z,10.00
2018-05-09T04:31:07.582Z,9.03
2018-05-09T04:33:33.680Z,9.17
2018-05-09T04:35:59.790Z,14.27
2018-05-09T04:38:25.889Z,15.57
2018-05-09T04:40:51.984Z,8.60
2018-05-09T04:43:18.079Z,8.70
2018-05-09T04:45:44.623Z,9.87
2018-05-09T04:48:10.768Z,10.73
2018-05-09T04:50:36.881Z,12.03
2018-05-09T04:53:02.991Z,13.60
2018-05-09T04:55:29.204Z,12.03
2018-05-09T04:57:55.918Z,9.87
2018-05-09T05:00:22.015Z,13.87
2018-05-09T05:02:48.098Z,14.27
2018-05-09T05:05:14.270Z,10.00
2018-05-09T05:07:43.041Z,12.93
2018-05-09T05:10:09.421Z,11.20
2018-05-09T05:12:35.610Z,11.43
2018-05-09T05:15:01.686Z,11.10
2018-05-09T05:17:27.804Z,12.77
2018-05-09T05:19:53.949Z,10.10
2018-05-09T05:22:20.797Z,10.20
2018-05-09T05:24:47.663Z,16.10
2018-05-09T05:27:14.515Z,15.73
2018-05-09T05:29:40.638Z,10.70
2018-05-09T05:32:07.078Z,13.10
2018-05-09T05:34:33.177Z,11.30
2018-05-09T05:36:59.303Z,13.60
2018-05-09T05:39:25.408Z,10.93
2018-05-09T05:41:51.515Z,14.27
2018-05-09T05:44:17.676Z,10.87
2018-05-09T05:46:44.007Z,14.80
2018-05-09T05:49:10.131Z,10.07
2018-05-09T05:51:36.235Z,9.80
2018-05-09T05:54:03.098Z,11.80
2018-05-09T05:56:29.225Z,7.90
2018-05-09T05:58:56.086Z,8.30
2018-05-09T06:01:22.251Z,6.57
2018-05-09T06:03:49.066Z,6.93
2018-05-09T06:06:15.181Z,6.37
2018-05-09T06:08:41.417Z,5.30
2018-05-09T06:11:07.534Z,9.70
2018-05-09T06:13:33.651Z,6.40
2018-05-09T06:15:59.784Z,7.23
2018-05-09T06:18:26.636Z,7.20
2018-05-09T06:20:52.749Z,6.10
2018-05-09T06:23:18.932Z,4.73
2018-05-09T06:25:45.022Z,9.90
2018-05-09T06:28:11.121Z,6.77
2018-05-09T06:30:37.971Z,8.10
2018-05-09T06:33:04.823Z,7.27
2018-05-09T06:35:30.931Z,5.33
2018-05-09T06:37:57.051Z,8.43
2018-05-09T06:40:23.150Z,5.73
2018-05-09T06:42:50.007Z,5.43
2018-05-09T06:45:16.848Z,4.10
2018-05-09T06:47:44.023Z,10.40
2018-05-09T06:50:10.867Z,6.30
2018-05-09T06:52:37.095Z,4.77
2018-05-09T06:55:03.225Z,5.97
2018-05-09T06:57:29.324Z,4.80
2018-05-09T06:59:56.309Z,8.43
2018-05-09T07:02:22.311Z,7.10
2018-05-09T07:04:48.402Z,3.50
2018-05-09T07:07:14.529Z,5.00
2018-05-09T07:09:40.631Z,4.97
2018-05-09T07:12:06.738Z,6.20
2018-05-09T07:14:32.823Z,7.23
2018-05-09T07:16:58.913Z,5.60
2018-05-09T07:19:25.015Z,5.93
2018-05-09T07:21:51.136Z,6.83
2018-05-09T07:24:17.234Z,6.90
2018-05-09T07:26:44.817Z,6.30
2018-05-09T07:29:10.911Z,4.97
2018-05-09T07:31:37.016Z,8.63
2018-05-09T07:34:03.124Z,4.37
2018-05-09T07:36:29.212Z,3.70
2018-05-09T07:38:55.310Z,6.40
2018-05-09T07:41:21.438Z,7.80
2018-05-09T07:43:47.556Z,4.37
2018-05-09T07:46:14.389Z,5.93
2018-05-09T07:48:40.495Z,5.20
2018-05-09T07:51:06.620Z,4.97
2018-05-09T07:53:32.729Z,4.87
2018-05-09T07:55:59.566Z,4.10
2018-05-09T07:58:26.489Z,4.13
2018-05-09T08:00:52.611Z,3.90
2018-05-09T08:03:18.811Z,5.40
2018-05-09T08:05:56.419Z,3.87
2018-05-09T08:08:27.494Z,3.73
2018-05-09T08:10:54.359Z,3.67
2018-05-09T08:13:21.215Z,3.90
2018-05-09T08:15:51.205Z,5.30
2018-05-09T08:18:18.082Z,4.40
2018-05-09T08:20:44.525Z,4.47
2018-05-09T08:23:10.640Z,6.40
2018-05-09T08:25:37.480Z,4.13
2018-05-09T08:28:03.628Z,3.60
2018-05-09T08:30:29.855Z,5.90
2018-05-09T08:32:57.254Z,5.10
2018-05-09T08:35:23.366Z,6.40
2018-05-09T08:37:49.486Z,5.33
2018-05-09T08:40:16.331Z,7.43
2018-05-09T08:42:43.175Z,4.20
2018-05-09T08:45:09.276Z,3.93
2018-05-09T08:47:35.371Z,4.43
2018-05-09T08:50:01.474Z,10.83
2018-05-09T08:52:29.526Z,7.47
2018-05-09T08:54:56.395Z,4.93
2018-05-09T08:57:23.321Z,5.77
2018-05-09T08:59:49.411Z,3.97
2018-05-09T09:02:16.234Z,4.83
2018-05-09T09:04:42.355Z,7.73
2018-05-09T09:07:08.448Z,4.60
2018-05-09T09:09:38.564Z,3.50
2018-05-09T09:12:04.660Z,5.60
2018-05-09T09:14:30.752Z,8.73
2018-05-09T09:16:56.851Z,4.13
2018-05-09T09:19:22.951Z,8.00
2018-05-09T09:21:49.087Z,5.13
2018-05-09T09:24:15.207Z,4.80
2018-05-09T09:26:44.007Z,5.80
2018-05-09T09:29:10.126Z,6.40
2018-05-09T09:31:36.206Z,4.80
2018-05-09T09:34:03.049Z,6.27
2018-05-09T09:36:29.887Z,6.60
2018-05-09T09:38:55.983Z,4.13
2018-05-09T09:41:22.169Z,4.93
2018-05-09T09:43:51.511Z,4.20
2018-05-09T09:46:17.595Z,4.97
2018-05-09T09:48:43.761Z,4.33
2018-05-09T09:51:09.887Z,4.10
2018-05-09T09:53:36.066Z,5.83
2018-05-09T09:56:02.903Z,4.20
2018-05-09T09:58:28.997Z,4.00
2018-05-09T10:00:56.927Z,3.93
2018-05-09T10:03:25.339Z,4.70
2018-05-09T10:05:51.451Z,5.63
2018-05-09T10:08:17.560Z,5.43
2018-05-09T10:10:44.451Z,5.50
2018-05-09T10:13:10.556Z,8.73
2018-05-09T10:15:41.676Z,6.73
2018-05-09T10:18:07.767Z,7.60
2018-05-09T10:20:33.858Z,5.23
2018-05-09T10:22:59.947Z,5.80
2018-05-09T10:25:26.086Z,7.60
2018-05-09T10:27:52.183Z,5.23
2018-05-09T10:30:18.300Z,4.93
2018-05-09T10:32:45.256Z,5.37
2018-05-09T10:37:42.788Z,4.33
2018-05-09T10:40:09.648Z,5.33
2018-05-09T10:42:35.751Z,4.33
2018-05-09T10:45:01.851Z,5.03
2018-05-09T10:47:27.996Z,6.00
2018-05-09T10:49:54.066Z,5.77
2018-05-09T10:54:52.062Z,7.43
2018-05-09T10:57:18.179Z,9.20
2018-05-09T10:59:44.474Z,6.17
2018-05-09T11:02:10.622Z,10.53
2018-05-09T11:04:36.734Z,7.70
2018-05-09T11:07:02.830Z,5.57
2018-05-09T11:09:29.693Z,8.27
2018-05-09T11:11:57.686Z,5.27
2018-05-09T11:14:24.528Z,7.70
2018-05-09T11:16:51.370Z,5.60
2018-05-09T11:19:17.490Z,5.17
2018-05-09T11:21:43.620Z,4.23
2018-05-09T11:24:09.789Z,5.60
2018-05-09T11:26:35.935Z,4.00
2018-05-09T11:29:07.080Z,5.20
2018-05-09T11:31:33.238Z,6.77
2018-05-09T11:34:00.168Z,7.20
2018-05-09T11:36:26.253Z,4.57
2018-05-09T11:38:52.373Z,10.10
2018-05-09T11:41:18.484Z,8.30
2018-05-09T11:43:44.751Z,5.33
2018-05-09T11:46:10.883Z,5.70
2018-05-09T11:48:41.337Z,4.70
2018-05-09T11:51:07.455Z,4.10
2018-05-09T11:53:34.314Z,4.33
2018-05-09T11:56:00.447Z,6.43
2018-05-09T11:58:26.584Z,4.97
2018-05-09T12:00:52.746Z,4.40
2018-05-09T12:03:18.934Z,5.50
2018-05-09T12:05:50.471Z,5.43
2018-05-09T12:08:17.319Z,4.90
2018-05-09T12:10:43.690Z,5.70
2018-05-09T12:13:09.750Z,4.23
2018-05-09T12:15:35.858Z,4.53
2018-05-09T12:18:02.719Z,8.50
2018-05-09T12:20:29.646Z,4.80
2018-05-09T12:22:59.972Z,8.93
2018-05-09T12:25:26.189Z,7.17
2018-05-09T12:27:52.293Z,5.00
2018-05-09T12:30:18.404Z,9.53
2018-05-09T12:32:44.599Z,5.33
2018-05-09T12:35:10.740Z,6.17
2018-05-09T12:37:36.845Z,4.80
2018-05-09T12:40:10.711Z,5.00
2018-05-09T12:42:36.827Z,5.17
2018-05-09T12:45:03.672Z,6.33
2018-05-09T12:47:30.507Z,5.53
2018-05-09T12:49:56.615Z,6.17
2018-05-09T12:52:22.750Z,8.67
2018-05-09T12:54:52.723Z,5.40
2018-05-09T12:57:18.807Z,7.20
2018-05-09T12:59:44.939Z,6.73
2018-05-09T13:02:11.042Z,4.90
2018-05-09T13:04:37.146Z,7.30
2018-05-09T13:07:03.267Z,7.70
2018-05-09T13:09:29.451Z,5.17
2018-05-09T13:11:58.788Z,6.57
2018-05-09T13:14:24.917Z,5.00
2018-05-09T13:16:51.027Z,7.17
2018-05-09T13:19:17.146Z,5.00
2018-05-09T13:21:43.364Z,5.00
2018-05-09T13:24:09.563Z,8.07
2018-05-09T13:26:35.664Z,6.00
2018-05-09T13:29:04.668Z,5.30
2018-05-09T13:31:31.501Z,4.97
2018-05-09T13:33:57.640Z,4.73
2018-05-09T13:36:23.731Z,6.73
2018-05-09T13:38:49.870Z,5.03
2018-05-09T13:41:15.990Z,7.93
2018-05-09T13:43:42.261Z,5.17
2018-05-09T13:46:11.508Z,5.33
2018-05-09T13:48:38.241Z,6.70
2018-05-09T13:51:04.346Z,7.73
2018-05-09T13:53:30.451Z,7.73
2018-05-09T13:55:56.571Z,6.40
2018-05-09T13:58:22.656Z,7.60
2018-05-09T14:00:48.850Z,6.67
2018-05-09T14:03:17.659Z,4.90
2018-05-09T14:05:43.774Z,4.60
2018-05-09T14:08:09.864Z,6.73
2018-05-09T14:10:35.967Z,6.00
2018-05-09T14:13:02.063Z,6.37
2018-05-09T14:15:28.197Z,7.33
2018-05-09T14:17:54.987Z,6.87
2018-05-09T14:20:21.092Z,3.77
2018-05-09T14:22:50.863Z,5.23
2018-05-09T14:25:17.040Z,7.03
2018-05-09T14:27:43.186Z,7.83
2018-05-09T14:30:10.028Z,10.00
2018-05-09T14:32:36.252Z,5.33
2018-05-09T14:35:02.380Z,7.10
2018-05-09T14:37:29.212Z,7.80
2018-05-09T14:39:55.332Z,5.77
2018-05-09T14:42:21.454Z,5.80
2018-05-09T14:44:49.893Z,4.33
2018-05-09T14:47:16.003Z,6.70
2018-05-09T14:49:42.097Z,6.73
2018-05-09T14:52:08.400Z,12.17
2018-05-09T14:54:34.533Z,13.10
2018-05-09T14:57:00.597Z,5.67
2018-05-09T14:59:26.708Z,5.63
2018-05-09T15:01:52.821Z,6.63
2018-05-09T15:04:18.930Z,7.43
2018-05-09T15:06:45.844Z,7.73
2018-05-09T15:09:12.461Z,6.70
2018-05-09T15:11:38.859Z,7.13
2018-05-09T15:14:05.017Z,5.73
2018-05-09T15:16:31.098Z,7.00
2018-05-09T15:18:57.274Z,6.70
2018-05-09T15:21:24.158Z,3.90
2018-05-09T15:24:02.565Z,6.23
2018-05-09T15:26:30.851Z,6.73
2018-05-09T15:29:17.612Z,3.97
2018-05-09T15:32:13.751Z,7.43
2018-05-09T15:34:44.196Z,6.47
2018-05-09T15:37:10.556Z,6.43
2018-05-09T15:39:37.223Z,6.83
2018-05-09T15:42:04.005Z,11.63
2018-05-09T15:44:31.387Z,7.67
2018-05-09T15:46:57.681Z,5.37
2018-05-09T15:49:24.723Z,5.00
2018-05-09T15:51:51.777Z,5.90
2018-05-09T15:54:18.194Z,5.67
2018-05-09T15:56:44.675Z,4.80
2018-05-09T15:59:11.280Z,6.20
2018-05-09T16:01:37.596Z,10.17
2018-05-09T16:04:03.887Z,5.53
2018-05-09T16:06:30.362Z,5.30
2018-05-09T16:08:57.503Z,5.40
2018-05-09T16:11:24.556Z,5.23
2018-05-09T16:13:50.876Z,7.80
2018-05-09T16:16:17.203Z,4.00
2018-05-09T16:18:43.554Z,6.20
2018-05-09T16:21:09.872Z,6.13
2018-05-09T16:23:36.594Z,4.43
2018-05-09T16:26:02.881Z,4.37
2018-05-09T16:28:30.010Z,5.53
2018-05-09T16:30:56.319Z,8.03
2018-05-09T16:33:22.585Z,4.63
2018-05-09T16:35:49.005Z,7.57
2018-05-09T16:38:15.378Z,8.03
2018-05-09T16:40:41.685Z,10.13
2018-05-09T16:43:07.970Z,7.23
2018-05-09T16:45:34.338Z,7.50
2018-05-09T16:48:01.361Z,8.27
2018-05-09T16:50:27.639Z,7.93
2018-05-09T16:52:53.957Z,6.73
2018-05-09T16:55:20.247Z,5.60
2018-05-09T16:57:46.569Z,13.77
2018-05-09T17:00:12.867Z,10.03
2018-05-09T17:02:39.135Z,7.90
2018-05-09T17:05:05.468Z,6.33
2018-05-09T17:07:31.798Z,8.33
2018-05-09T17:09:58.098Z,7.90
2018-05-09T17:12:24.477Z,8.50
2018-05-09T17:14:50.988Z,6.23
2018-05-09T17:17:17.286Z,7.53
2018-05-09T17:19:43.811Z,8.07
2018-05-09T17:22:31.934Z,11.00
2018-05-09T17:24:58.222Z,9.50
2018-05-09T17:27:29.340Z,12.00
2018-05-09T17:29:55.690Z,7.93
2018-05-09T17:32:21.999Z,8.30
2018-05-09T17:34:49.024Z,8.63
2018-05-09T17:37:15.301Z,5.60
2018-05-09T17:39:42.323Z,9.40
2018-05-09T17:42:08.655Z,5.20
2018-05-09T17:44:34.927Z,10.13
2018-05-09T17:47:01.231Z,6.97
2018-05-09T17:49:27.529Z,7.13
2018-05-09T17:51:53.836Z,8.87
2018-05-09T17:54:20.103Z,6.20
2018-05-09T17:56:47.140Z,9.20
2018-05-09T17:59:13.447Z,5.77
2018-05-09T18:01:39.783Z,7.37
2018-05-09T18:04:06.137Z,7.47
2018-05-09T18:06:32.362Z,8.57
2018-05-09T18:08:58.650Z,5.53
2018-05-09T18:11:24.956Z,6.27
2018-05-09T18:13:51.340Z,6.17
2018-05-09T18:16:17.630Z,5.20
2018-05-09T18:18:44.033Z,6.07
2018-05-09T18:21:10.391Z,6.63
2018-05-09T18:23:50.283Z,5.90
2018-05-09T18:26:16.608Z,6.60
2018-05-09T18:28:43.713Z,7.20
2018-05-09T18:31:10.378Z,7.90
2018-05-09T18:33:36.763Z,6.90
2018-05-09T18:36:03.776Z,10.03
2018-05-09T18:38:51.032Z,6.57
2018-05-09T18:41:23.289Z,6.43
2018-05-09T18:43:49.621Z,9.17
2018-05-09T18:46:15.894Z,6.20
2018-05-09T18:48:42.202Z,7.93
2018-05-09T18:51:09.232Z,7.00
2018-05-09T18:53:35.534Z,8.77
2018-05-09T18:56:01.823Z,9.03
2018-05-09T18:58:28.131Z,6.30
2018-05-09T19:00:54.418Z,7.17
2018-05-09T19:03:21.521Z,5.53
2018-05-09T19:05:47.816Z,9.33
2018-05-09T19:08:14.906Z,6.07
2018-05-09T19:10:41.223Z,9.23
2018-05-09T19:13:07.518Z,5.77
2018-05-09T19:15:33.817Z,10.00
2018-05-09T19:18:00.149Z,7.73
2018-05-09T19:20:27.900Z,8.60
2018-05-09T19:22:54.236Z,8.10
2018-05-09T19:25:21.339Z,7.70
2018-05-09T19:27:47.677Z,6.37
2018-05-09T19:30:13.963Z,7.53
2018-05-09T19:32:41.016Z,8.93
2018-05-09T19:35:17.328Z,22.80
2018-05-09T19:37:47.532Z,68.80
2018-05-09T19:40:13.634Z,97.67
2018-05-09T19:42:39.876Z,101.27
2018-05-09T19:45:06.010Z,77.90
2018-05-09T19:47:32.867Z,57.50
2018-05-09T19:49:58.970Z,48.23
2018-05-09T19:52:25.906Z,41.30
2018-05-09T19:54:52.163Z,39.60
2018-05-09T19:57:19.152Z,27.40
2018-05-09T19:59:45.235Z,40.67
2018-05-09T20:02:11.359Z,240.07
2018-05-09T20:04:37.463Z,260.40
2018-05-09T20:07:03.587Z,295.97
2018-05-09T20:09:39.421Z,180.27
2018-05-09T20:12:12.745Z,66.70
2018-05-09T20:14:39.604Z,62.60
2018-05-09T20:17:06.446Z,43.33
2018-05-09T20:19:32.530Z,39.10
2018-05-09T20:21:58.617Z,36.80
2018-05-09T20:24:24.744Z,27.60
2018-05-09T20:26:50.840Z,21.50
2018-05-09T20:29:16.919Z,21.47
2018-05-09T20:31:55.450Z,18.50
2018-05-09T20:34:21.550Z,20.27
2018-05-09T20:36:47.621Z,21.43
2018-05-09T20:39:13.706Z,18.60
2018-05-09T20:41:50.331Z,24.00
2018-05-09T20:44:19.891Z,19.37
2018-05-09T20:46:47.707Z,15.50
2018-05-09T20:49:13.788Z,14.30
2018-05-09T20:51:49.986Z,17.50
2018-05-09T20:54:16.835Z,14.17
2018-05-09T20:56:43.665Z,15.77
2018-05-09T20:59:09.836Z,11.73
2018-05-09T21:01:46.804Z,11.20
2018-05-09T21:04:13.036Z,11.07
2018-05-09T21:06:39.135Z,12.80
2018-05-09T21:09:05.257Z,12.70
2018-05-09T21:11:32.076Z,12.10
2018-05-09T21:13:58.192Z,11.53
2018-05-09T21:16:24.337Z,13.80
2018-05-09T21:18:50.455Z,10.70
2018-05-09T21:21:16.628Z,9.90
2018-05-09T21:23:42.742Z,12.03
2018-05-09T21:26:08.866Z,12.90
2018-05-09T21:28:35.013Z,13.60
2018-05-09T21:31:01.158Z,12.07
2018-05-09T21:33:27.440Z,12.90
2018-05-09T21:35:54.338Z,11.53
2018-05-09T21:38:20.586Z,11.57
2018-05-09T21:40:46.811Z,13.80
2018-05-09T21:43:12.890Z,9.20
2018-05-09T21:45:39.098Z,8.90
2018-05-09T21:48:05.211Z,9.60
2018-05-09T21:50:31.379Z,9.20
2018-05-09T21:52:57.505Z,9.00
2018-05-09T21:55:23.657Z,12.93
2018-05-09T21:57:49.940Z,8.67
2018-05-09T22:00:16.844Z,9.30
2018-05-09T22:02:42.948Z,12.80
2018-05-09T22:05:09.821Z,11.53
2018-05-09T22:07:36.130Z,10.07
2018-05-09T22:10:02.215Z,15.33
2018-05-09T22:12:28.292Z,9.17
2018-05-09T22:14:54.463Z,9.10
2018-05-09T22:17:21.304Z,10.80
2018-05-09T22:19:47.470Z,17.63
2018-05-09T22:22:13.592Z,10.83
2018-05-09T22:24:40.429Z,12.20
2018-05-09T22:27:06.553Z,11.40
2018-05-09T22:29:32.634Z,13.77
2018-05-09T22:31:59.507Z,11.13
2018-05-09T22:34:25.619Z,12.43
2018-05-09T22:36:52.828Z,10.00
2018-05-09T22:39:19.165Z,9.13
2018-05-09T22:41:46.226Z,8.97
2018-05-09T22:44:12.323Z,10.40
2018-05-09T22:46:38.423Z,13.20
2018-05-09T22:49:04.511Z,11.60
2018-05-09T22:51:30.658Z,14.00
2018-05-09T22:53:56.999Z,11.90
2018-05-09T22:56:23.110Z,11.43
2018-05-09T22:58:49.962Z,13.80
2018-05-09T23:01:16.975Z,11.00
2018-05-09T23:03:43.073Z,10.43
2018-05-09T23:06:09.168Z,10.13
2018-05-09T23:08:35.421Z,9.77
2018-05-09T23:11:01.525Z,12.37
2018-05-09T23:13:27.635Z,10.27
2018-05-09T23:15:53.747Z,10.47
2018-05-09T23:18:19.835Z,11.70
2018-05-09T23:20:45.921Z,10.33
2018-05-09T23:23:12.018Z,16.90
2018-05-09T23:25:38.246Z,13.73
2018-05-09T23:28:04.376Z,15.40
2018-05-09T23:30:30.488Z,14.63
2018-05-09T23:32:56.596Z,15.30
2018-05-09T23:35:22.802Z,12.00
2018-05-09T23:37:49.564Z,13.97
2018-05-09T23:40:15.766Z,10.90
2018-05-09T23:42:42.587Z,9.30
2018-05-09T23:45:08.678Z,9.83
2018-05-09T23:47:34.782Z,8.57
2018-05-09T23:50:01.640Z,8.53
2018-05-09T23:52:27.758Z,8.63
2018-05-09T23:54:53.859Z,10.73
2018-05-09T23:57:19.947Z,8.03
2018-05-09T23:59:46.773Z,13.77
